Blair, Texas
Current Conditions -  °F | °C
As of 10:58 AM on Monday 24 Nov 2014 (Local Time) from KDYS Reporting Station
Clear Clear  
Wind Chill: 51°   Ceiling: Unl
Heat Index: 51°   Visibility: 10mi
Dew Point: 24°   Wind: 0mph
Humidity: 34%   Direction: NA
Pressure: 30.1"   Gusts: NA
Location:  32.3913°N, 100.009°W
Report Text: KDYS 241658Z AUTO 00000KT 10SM CLR 11/M04 A3010 RMK AO2 SLP188 T01081045 $
Loading
Personal Weather Stations






























Interactive Weather Map New forecast layout! Learn more

10-Day Weather Forecast

Advertisements
Track Severe Weather on mobile